createdAt,value
2023-11-23T00:00:13.158Z,17.02
2023-11-23T00:02:41.278Z,16.23
2023-11-23T00:05:12.201Z,16.30
2023-11-23T00:07:42.116Z,17.13
2023-11-23T00:10:11.530Z,16.65
2023-11-23T00:12:38.672Z,16.92
2023-11-23T00:15:06.628Z,15.23
2023-11-23T00:17:33.532Z,16.15
2023-11-23T00:20:01.132Z,15.75
2023-11-23T00:22:27.913Z,16.10
2023-11-23T00:24:55.550Z,16.17
2023-11-23T00:27:22.414Z,15.32
2023-11-23T00:29:49.263Z,15.35
2023-11-23T00:32:16.522Z,15.48
2023-11-23T00:34:44.673Z,15.50
2023-11-23T00:37:11.896Z,14.85
2023-11-23T00:39:38.645Z,15.32
2023-11-23T00:42:05.709Z,16.15
2023-11-23T00:44:32.616Z,13.60
2023-11-23T00:47:00.227Z,14.98
2023-11-23T00:49:31.057Z,15.75
2023-11-23T00:51:57.897Z,15.37
2023-11-23T00:54:25.141Z,15.25
2023-11-23T00:57:02.633Z,17.17
2023-11-23T00:59:29.711Z,14.88
2023-11-23T01:01:56.861Z,14.38
2023-11-23T01:04:23.803Z,15.27
2023-11-23T01:06:50.745Z,16.20
2023-11-23T01:09:19.135Z,14.48
2023-11-23T01:11:45.926Z,15.70
2023-11-23T01:14:12.799Z,13.82
2023-11-23T01:16:39.908Z,14.82
2023-11-23T01:19:06.878Z,16.60
2023-11-23T01:21:33.878Z,15.68
2023-11-23T01:24:00.908Z,19.20
2023-11-23T01:26:27.784Z,14.95
2023-11-23T01:28:54.567Z,17.23
2023-11-23T01:31:21.585Z,15.07
2023-11-23T01:33:48.502Z,16.35
2023-11-23T01:36:17.751Z,15.88
2023-11-23T01:38:45.135Z,17.20
2023-11-23T01:41:11.998Z,15.07
2023-11-23T01:43:38.758Z,14.55
2023-11-23T01:46:05.887Z,15.98
2023-11-23T01:48:34.104Z,16.95
2023-11-23T01:51:18.508Z,16.05
2023-11-23T01:53:45.638Z,16.92
2023-11-23T01:56:13.355Z,15.43
2023-11-23T01:58:40.744Z,18.00
2023-11-23T02:01:07.778Z,17.05
2023-11-23T02:03:34.986Z,15.85
2023-11-23T02:06:01.981Z,16.17
2023-11-23T02:08:29.014Z,17.73
2023-11-23T02:10:55.971Z,15.48
2023-11-23T02:13:23.646Z,17.55
2023-11-23T02:15:50.599Z,16.02
2023-11-23T02:18:17.628Z,15.23
2023-11-23T02:20:47.956Z,17.23
2023-11-23T02:23:14.979Z,15.90
2023-11-23T02:25:42.897Z,17.70
2023-11-23T02:28:10.564Z,17.08
2023-11-23T02:30:37.805Z,17.20
2023-11-23T02:33:05.439Z,18.48
2023-11-23T02:35:33.004Z,17.83
2023-11-23T02:38:00.189Z,16.65
2023-11-23T02:40:27.730Z,18.23
2023-11-23T02:42:54.607Z,16.77
2023-11-23T02:45:22.199Z,16.60
2023-11-23T02:47:50.526Z,16.70
2023-11-23T02:50:17.490Z,18.48
2023-11-23T02:52:44.657Z,17.55
2023-11-23T02:55:12.450Z,18.40
2023-11-23T02:57:39.494Z,16.50
2023-11-23T03:00:13.477Z,16.00
2023-11-23T03:02:40.842Z,15.93
2023-11-23T03:05:08.494Z,16.67
2023-11-23T03:07:35.367Z,17.60
2023-11-23T03:10:02.547Z,15.85
2023-11-23T03:12:30.157Z,16.65
2023-11-23T03:14:57.249Z,17.35
2023-11-23T03:17:24.354Z,15.57
2023-11-23T03:19:51.132Z,16.20
2023-11-23T03:22:17.932Z,17.42
2023-11-23T03:24:45.993Z,18.33
2023-11-23T03:27:19.752Z,15.88
2023-11-23T03:29:46.702Z,17.90
2023-11-23T03:32:13.581Z,17.20
2023-11-23T03:34:40.430Z,17.40
2023-11-23T03:37:08.105Z,16.08
2023-11-23T03:39:35.294Z,15.57
2023-11-23T03:42:02.298Z,18.17
2023-11-23T03:44:29.372Z,17.95
2023-11-23T03:46:56.139Z,16.92
2023-11-23T03:49:22.913Z,18.13
2023-11-23T03:51:49.982Z,19.63
2023-11-23T03:54:16.854Z,19.15
2023-11-23T03:56:43.633Z,17.60
2023-11-23T03:59:10.498Z,22.92
2023-11-23T04:01:47.392Z,18.92
2023-11-23T04:04:14.638Z,21.52
2023-11-23T04:06:41.888Z,18.48
2023-11-23T04:09:12.816Z,19.02
2023-11-23T04:11:40.274Z,20.05
2023-11-23T04:14:07.760Z,19.08
2023-11-23T04:16:34.687Z,19.15
2023-11-23T04:19:01.485Z,19.35
2023-11-23T04:21:28.856Z,18.98
2023-11-23T04:23:55.600Z,20.85
2023-11-23T04:26:22.348Z,18.67
2023-11-23T04:28:50.680Z,19.70
2023-11-23T04:31:17.464Z,18.80
2023-11-23T04:33:44.365Z,21.27
2023-11-23T04:36:12.558Z,20.35
2023-11-23T04:39:02.761Z,19.15
2023-11-23T04:41:39.007Z,21.33
2023-11-23T04:44:06.004Z,20.63
2023-11-23T04:46:34.157Z,23.30
2023-11-23T04:49:01.224Z,21.63
2023-11-23T04:51:28.015Z,22.98
2023-11-23T04:53:54.883Z,21.65
2023-11-23T04:56:21.716Z,20.13
2023-11-23T04:58:48.516Z,20.38
2023-11-23T05:01:15.401Z,21.75
2023-11-23T05:03:42.355Z,20.45
2023-11-23T05:06:09.504Z,18.77
2023-11-23T05:08:38.131Z,19.30
2023-11-23T05:11:05.060Z,19.48
2023-11-23T05:13:31.823Z,21.27
2023-11-23T05:15:58.631Z,22.70
2023-11-23T05:18:25.478Z,22.40
2023-11-23T05:20:52.487Z,21.52
2023-11-23T05:23:19.347Z,24.13
2023-11-23T05:25:46.158Z,23.02
2023-11-23T05:28:12.970Z,20.30
2023-11-23T05:31:04.820Z,21.67
2023-11-23T05:35:58.750Z,25.67
2023-11-23T05:38:26.294Z,22.77
2023-11-23T05:40:53.410Z,21.33
2023-11-23T05:43:20.713Z,22.33
2023-11-23T05:45:47.538Z,27.67
2023-11-23T05:48:14.484Z,23.73
2023-11-23T05:50:44.789Z,26.58
2023-11-23T05:53:11.681Z,22.35
2023-11-23T05:55:38.486Z,21.60
2023-11-23T05:58:05.211Z,20.25
2023-11-23T06:00:32.472Z,20.55
2023-11-23T06:02:59.455Z,25.90
2023-11-23T06:05:26.513Z,21.02
2023-11-23T06:07:53.355Z,25.25
2023-11-23T06:10:20.330Z,22.73
2023-11-23T06:12:47.173Z,22.70
2023-11-23T06:15:14.961Z,22.48
2023-11-23T06:17:41.974Z,22.20
2023-11-23T06:20:09.889Z,22.00
2023-11-23T06:22:36.771Z,23.17
2023-11-23T06:25:04.989Z,22.02
2023-11-23T06:27:33.337Z,22.42
2023-11-23T06:30:00.291Z,20.67
2023-11-23T06:32:27.438Z,20.48
2023-11-23T06:34:54.464Z,21.77
2023-11-23T06:37:21.241Z,21.80
2023-11-23T06:39:48.250Z,22.10
2023-11-23T06:42:15.224Z,21.20
2023-11-23T06:44:42.027Z,21.95
2023-11-23T06:47:08.962Z,23.48
2023-11-23T06:49:36.279Z,19.40
2023-11-23T06:52:03.232Z,18.90
2023-11-23T06:54:30.004Z,18.02
2023-11-23T06:56:58.413Z,19.33
2023-11-23T06:59:25.448Z,19.20
2023-11-23T07:01:52.317Z,20.35
2023-11-23T07:04:19.148Z,18.23
2023-11-23T07:06:45.915Z,20.52
2023-11-23T07:09:14.972Z,17.73
2023-11-23T07:11:41.745Z,16.30
2023-11-23T07:14:08.540Z,17.95
2023-11-23T07:16:37.434Z,18.33
2023-11-23T07:19:05.208Z,17.98
2023-11-23T07:21:32.209Z,18.42
2023-11-23T07:23:59.266Z,19.02
2023-11-23T07:26:26.045Z,18.13
2023-11-23T07:28:54.717Z,18.35
2023-11-23T07:31:21.591Z,16.88
2023-11-23T07:33:50.807Z,17.42
2023-11-23T07:36:19.237Z,17.67
2023-11-23T07:38:46.472Z,16.88
2023-11-23T07:41:13.370Z,18.23
2023-11-23T07:43:40.345Z,16.30
2023-11-23T07:46:07.241Z,15.80
2023-11-23T07:48:34.314Z,14.95
2023-11-23T07:51:01.414Z,16.58
2023-11-23T07:53:32.036Z,16.10
2023-11-23T07:55:58.911Z,14.27
2023-11-23T07:58:25.819Z,16.98
2023-11-23T08:00:53.274Z,15.77
2023-11-23T08:03:20.267Z,14.25
2023-11-23T08:05:47.299Z,13.57
2023-11-23T08:08:14.704Z,15.55
2023-11-23T08:10:41.599Z,25.50
2023-11-23T08:13:08.829Z,14.27
2023-11-23T08:15:35.804Z,15.75
2023-11-23T08:18:07.796Z,13.48
2023-11-23T08:20:37.767Z,13.60
2023-11-23T08:23:05.341Z,13.95
2023-11-23T08:25:32.102Z,13.23
2023-11-23T08:27:58.991Z,12.95
2023-11-23T08:30:25.986Z,15.15
2023-11-23T08:32:53.007Z,12.65
2023-11-23T08:35:20.467Z,14.52
2023-11-23T08:37:47.632Z,16.48
2023-11-23T08:40:14.838Z,13.52
2023-11-23T08:42:42.019Z,12.95
2023-11-23T08:45:09.851Z,14.30
2023-11-23T08:47:36.654Z,12.65
2023-11-23T08:50:04.012Z,13.40
2023-11-23T08:52:30.834Z,12.88
2023-11-23T08:54:57.740Z,11.30
2023-11-23T08:57:24.487Z,12.02
2023-11-23T08:59:51.276Z,11.10
2023-11-23T09:02:20.873Z,11.88
2023-11-23T09:04:49.643Z,12.25
2023-11-23T09:07:17.567Z,9.30
2023-11-23T09:09:44.658Z,11.18
2023-11-23T09:12:12.818Z,10.90
2023-11-23T09:14:47.190Z,12.43
2023-11-23T09:17:17.453Z,10.98
2023-11-23T09:19:44.292Z,9.85
2023-11-23T09:22:11.881Z,12.05
2023-11-23T09:24:39.395Z,9.63
2023-11-23T09:27:11.284Z,11.88
2023-11-23T09:29:38.387Z,15.07
2023-11-23T09:32:06.587Z,10.75
2023-11-23T09:34:33.505Z,11.75
2023-11-23T09:37:00.541Z,11.02
2023-11-23T09:39:30.284Z,9.80
2023-11-23T09:41:59.796Z,11.75
2023-11-23T09:44:27.490Z,10.13
2023-11-23T09:46:57.090Z,12.20
2023-11-23T09:49:24.946Z,9.80
2023-11-23T09:51:52.722Z,11.27
2023-11-23T09:54:24.694Z,9.15
2023-11-23T09:56:52.116Z,9.00
2023-11-23T09:59:19.016Z,10.40
2023-11-23T10:01:49.035Z,8.60
2023-11-23T10:04:17.115Z,12.52
2023-11-23T10:06:44.189Z,8.40
2023-11-23T10:09:16.183Z,8.52
2023-11-23T10:11:44.030Z,7.53
2023-11-23T10:14:12.671Z,8.40
2023-11-23T10:16:39.452Z,8.85
2023-11-23T10:19:06.502Z,10.07
2023-11-23T10:21:33.387Z,8.23
2023-11-23T10:24:09.858Z,10.07
2023-11-23T10:26:36.719Z,8.77
2023-11-23T10:29:04.938Z,7.80
2023-11-23T10:31:32.212Z,8.00
2023-11-23T10:34:00.383Z,8.32
2023-11-23T10:36:29.952Z,9.60
2023-11-23T10:38:57.891Z,8.30
2023-11-23T10:41:24.677Z,8.60
2023-11-23T10:43:51.502Z,8.80
2023-11-23T10:46:19.789Z,10.65
2023-11-23T10:48:48.051Z,9.45
2023-11-23T10:51:16.030Z,11.20
2023-11-23T10:53:43.279Z,9.52
2023-11-23T10:56:22.885Z,9.55
2023-11-23T10:58:53.679Z,9.80
2023-11-23T11:01:23.713Z,10.80
2023-11-23T11:03:51.496Z,13.30
2023-11-23T11:06:19.414Z,9.75
2023-11-23T11:08:51.113Z,9.77
2023-11-23T11:11:21.748Z,8.38
2023-11-23T11:13:49.299Z,10.27
2023-11-23T11:16:21.747Z,10.32
2023-11-23T11:18:53.573Z,11.20
2023-11-23T11:21:27.129Z,9.02
2023-11-23T11:23:55.508Z,9.68
2023-11-23T11:26:27.046Z,9.15
2023-11-23T11:28:55.998Z,10.88
2023-11-23T11:31:30.898Z,9.25
2023-11-23T11:33:57.888Z,9.68
2023-11-23T11:36:29.629Z,9.80
2023-11-23T11:39:00.720Z,9.77
2023-11-23T11:41:31.031Z,9.05
2023-11-23T11:43:59.746Z,9.38
2023-11-23T11:46:29.686Z,11.88
2023-11-23T11:49:00.678Z,9.48
2023-11-23T11:51:29.919Z,8.63
2023-11-23T11:53:57.581Z,10.23
2023-11-23T11:56:24.509Z,8.38
2023-11-23T11:58:51.741Z,9.18
2023-11-23T12:01:19.231Z,9.35
2023-11-23T12:03:47.432Z,8.63
2023-11-23T12:06:14.682Z,9.60
2023-11-23T12:08:41.631Z,8.85
2023-11-23T12:11:08.519Z,11.45
2023-11-23T12:13:36.224Z,11.38
2023-11-23T12:16:03.449Z,10.05
2023-11-23T12:18:36.288Z,11.18
2023-11-23T12:21:04.495Z,10.02
2023-11-23T12:23:39.843Z,12.10
2023-11-23T12:26:06.845Z,11.10
2023-11-23T12:28:34.309Z,11.23
2023-11-23T12:31:01.224Z,9.30
2023-11-23T12:33:28.498Z,9.80
2023-11-23T12:35:55.955Z,12.63
2023-11-23T12:38:22.813Z,11.18
2023-11-23T12:40:50.808Z,10.05
2023-11-23T12:43:19.096Z,9.60
2023-11-23T12:45:46.472Z,8.93
2023-11-23T12:48:13.432Z,12.02
2023-11-23T12:50:40.283Z,9.68
2023-11-23T12:53:07.719Z,9.23
2023-11-23T12:55:35.174Z,14.20
2023-11-23T12:58:02.208Z,11.20
2023-11-23T13:00:37.456Z,13.25
2023-11-23T13:03:05.770Z,9.45
2023-11-23T13:05:36.219Z,10.35
2023-11-23T13:08:03.467Z,8.20
2023-11-23T13:10:30.934Z,10.98
2023-11-23T13:12:57.897Z,9.38
2023-11-23T13:15:27.456Z,10.60
2023-11-23T13:17:55.383Z,9.82
2023-11-23T13:20:25.137Z,9.15
2023-11-23T13:22:52.494Z,9.02
2023-11-23T13:25:21.714Z,9.20
2023-11-23T13:27:50.357Z,9.02
2023-11-23T13:30:18.065Z,11.32
2023-11-23T13:32:47.486Z,9.35
2023-11-23T13:35:14.535Z,7.88
2023-11-23T13:37:41.791Z,11.00
2023-11-23T13:40:10.393Z,9.68
2023-11-23T13:42:37.393Z,10.20
2023-11-23T13:45:06.243Z,10.82
2023-11-23T13:47:33.136Z,8.48
2023-11-23T13:49:59.949Z,10.07
2023-11-23T13:52:26.942Z,8.50
2023-11-23T13:54:53.740Z,9.50
2023-11-23T13:57:20.752Z,9.23
2023-11-23T13:59:47.634Z,11.25
2023-11-23T14:02:17.176Z,11.88
2023-11-23T14:04:44.320Z,9.25
2023-11-23T14:07:11.136Z,9.27
2023-11-23T14:09:38.012Z,9.13
2023-11-23T14:12:05.432Z,9.27
2023-11-23T14:14:32.269Z,8.05
2023-11-23T14:16:59.162Z,11.93
2023-11-23T14:19:26.286Z,10.77
2023-11-23T14:21:55.157Z,10.57
2023-11-23T14:24:22.328Z,9.15
2023-11-23T14:26:50.821Z,8.93
2023-11-23T14:29:17.971Z,9.75
2023-11-23T14:31:51.080Z,9.23
2023-11-23T14:34:18.145Z,8.88
2023-11-23T14:36:45.717Z,9.10
2023-11-23T14:39:17.258Z,13.75
2023-11-23T14:41:44.758Z,9.88
2023-11-23T14:44:18.464Z,9.00
2023-11-23T14:46:50.651Z,9.63
2023-11-23T14:49:19.641Z,9.38
2023-11-23T14:51:47.671Z,11.98
2023-11-23T14:54:19.078Z,9.65
2023-11-23T14:56:52.963Z,8.80
2023-11-23T14:59:20.335Z,8.13
2023-11-23T15:01:47.205Z,10.18
2023-11-23T15:04:14.624Z,11.65
2023-11-23T15:06:41.518Z,10.38
2023-11-23T15:09:08.559Z,10.82
2023-11-23T15:11:35.389Z,10.80
2023-11-23T15:14:02.179Z,9.95
2023-11-23T15:16:29.247Z,9.98
2023-11-23T15:18:56.630Z,12.18
2023-11-23T15:21:23.942Z,11.73
2023-11-23T15:23:51.583Z,10.73
2023-11-23T15:26:18.502Z,15.60
2023-11-23T15:28:47.065Z,12.90
2023-11-23T15:31:16.922Z,13.05
2023-11-23T15:33:44.003Z,12.63
2023-11-23T15:36:12.259Z,11.93
2023-11-23T15:38:39.376Z,12.18
2023-11-23T15:41:06.474Z,12.32
2023-11-23T15:43:33.700Z,12.60
2023-11-23T15:46:00.590Z,14.85
2023-11-23T15:48:27.467Z,12.50
2023-11-23T15:50:54.286Z,12.52
2023-11-23T15:53:21.221Z,11.90
2023-11-23T15:55:51.735Z,12.50
2023-11-23T15:58:19.184Z,18.65
2023-11-23T16:00:46.104Z,14.50
2023-11-23T16:03:14.201Z,13.98
2023-11-23T16:05:41.449Z,11.57
2023-11-23T16:08:08.767Z,12.93
2023-11-23T16:10:35.672Z,11.80
2023-11-23T16:13:02.519Z,13.07
2023-11-23T16:15:29.662Z,11.27
2023-11-23T16:17:59.170Z,10.65
2023-11-23T16:20:26.205Z,11.38
2023-11-23T16:22:53.333Z,11.98
2023-11-23T16:25:20.147Z,10.10
2023-11-23T16:27:47.236Z,10.18
2023-11-23T16:30:15.219Z,11.40
2023-11-23T16:32:43.619Z,10.63
2023-11-23T16:35:14.035Z,11.10
2023-11-23T16:37:40.987Z,11.52
2023-11-23T16:40:11.184Z,10.38
2023-11-23T16:42:43.154Z,11.75
2023-11-23T16:45:11.197Z,10.38
2023-11-23T16:47:38.351Z,11.95
2023-11-23T16:50:05.713Z,11.27
2023-11-23T16:52:33.530Z,10.90
2023-11-23T16:55:01.158Z,9.10
2023-11-23T16:57:28.166Z,10.25
2023-11-23T16:59:55.365Z,10.82
2023-11-23T17:02:22.830Z,11.65
2023-11-23T17:04:52.898Z,9.38
2023-11-23T17:07:24.547Z,10.63
2023-11-23T17:09:53.995Z,10.13
2023-11-23T17:12:20.874Z,9.30
2023-11-23T17:14:47.757Z,8.40
2023-11-23T17:17:14.689Z,11.40
2023-11-23T17:19:41.645Z,8.57
2023-11-23T17:22:08.581Z,9.15
2023-11-23T17:24:37.318Z,15.10
2023-11-23T17:27:05.489Z,9.85
2023-11-23T17:29:32.340Z,8.90
2023-11-23T17:31:59.262Z,9.73
2023-11-23T17:34:27.268Z,11.50
2023-11-23T17:36:54.451Z,10.77
2023-11-23T17:39:25.526Z,10.35
2023-11-23T17:41:54.615Z,11.95
2023-11-23T17:44:21.702Z,8.52
2023-11-23T17:46:51.335Z,11.52
2023-11-23T17:49:18.410Z,10.35
2023-11-23T17:51:46.317Z,11.88
2023-11-23T17:54:16.129Z,10.52
2023-11-23T17:56:43.167Z,10.90
2023-11-23T17:59:25.338Z,9.82
2023-11-23T18:01:58.973Z,7.72
2023-11-23T18:04:27.404Z,9.50
2023-11-23T18:06:55.737Z,9.60
2023-11-23T18:09:22.841Z,10.20
2023-11-23T18:11:50.228Z,8.80
2023-11-23T18:14:17.611Z,9.73
2023-11-23T18:16:45.134Z,11.02
2023-11-23T18:19:12.004Z,10.98
2023-11-23T18:21:39.713Z,11.27
2023-11-23T18:24:06.794Z,11.35
2023-11-23T18:26:33.737Z,9.77
2023-11-23T18:29:00.614Z,8.55
2023-11-23T18:31:27.982Z,10.27
2023-11-23T18:33:54.942Z,10.77
2023-11-23T18:36:23.104Z,9.98
2023-11-23T18:38:50.081Z,10.32
2023-11-23T18:41:17.423Z,9.82
2023-11-23T18:43:44.359Z,10.43
2023-11-23T18:46:13.411Z,10.18
2023-11-23T18:48:40.525Z,10.13
2023-11-23T18:51:08.153Z,11.60
2023-11-23T18:53:35.224Z,9.23
2023-11-23T18:56:04.607Z,9.40
2023-11-23T18:58:31.628Z,12.82
2023-11-23T19:01:00.573Z,11.02
2023-11-23T19:03:27.944Z,9.90
2023-11-23T19:05:58.990Z,11.65
2023-11-23T19:08:26.220Z,11.38
2023-11-23T19:10:53.691Z,11.90
2023-11-23T19:13:21.329Z,12.85
2023-11-23T19:15:49.481Z,11.68
2023-11-23T19:18:17.717Z,11.52
2023-11-23T19:20:44.814Z,11.43
2023-11-23T19:23:12.006Z,12.13
2023-11-23T19:25:39.029Z,9.98
2023-11-23T19:28:06.762Z,11.55
2023-11-23T19:30:34.139Z,9.60
2023-11-23T19:33:06.178Z,11.27
2023-11-23T19:35:33.187Z,10.63
2023-11-23T19:38:00.359Z,9.35
2023-11-23T19:40:27.366Z,8.85
2023-11-23T19:42:56.431Z,9.73
2023-11-23T19:45:23.633Z,8.77
2023-11-23T19:47:51.147Z,8.77
2023-11-23T19:50:18.970Z,9.95
2023-11-23T19:52:46.227Z,9.90
2023-11-23T19:55:13.191Z,7.97
2023-11-23T19:57:40.719Z,7.65
2023-11-23T20:00:08.418Z,8.15
2023-11-23T20:02:36.174Z,7.18
2023-11-23T20:05:08.732Z,9.55
2023-11-23T20:07:35.779Z,8.38
2023-11-23T20:10:02.771Z,7.63
2023-11-23T20:12:30.327Z,7.97
2023-11-23T20:14:57.346Z,9.43
2023-11-23T20:17:26.240Z,9.77
2023-11-23T20:19:53.131Z,7.47
2023-11-23T20:22:20.064Z,8.20
2023-11-23T20:24:47.306Z,7.93
2023-11-23T20:27:14.280Z,10.98
2023-11-23T20:29:41.377Z,8.80
2023-11-23T20:32:08.573Z,8.30
2023-11-23T20:34:35.558Z,9.13
2023-11-23T20:37:02.462Z,11.35
2023-11-23T20:39:32.353Z,10.13
2023-11-23T20:41:59.409Z,10.43
2023-11-23T20:44:27.101Z,8.38
2023-11-23T20:46:56.734Z,9.07
2023-11-23T20:49:26.224Z,10.15
2023-11-23T20:51:53.964Z,10.13
2023-11-23T20:54:21.249Z,8.55
2023-11-23T20:56:48.662Z,9.95
2023-11-23T20:59:15.916Z,9.73
2023-11-23T21:01:43.309Z,10.40
2023-11-23T21:04:11.781Z,9.63
2023-11-23T21:06:55.555Z,10.85
2023-11-23T21:09:28.871Z,9.38
2023-11-23T21:11:55.948Z,10.52
2023-11-23T21:14:24.617Z,9.52
2023-11-23T21:16:52.128Z,9.88
2023-11-23T21:19:19.281Z,9.60
2023-11-23T21:21:46.319Z,9.57
2023-11-23T21:24:14.380Z,14.15
2023-11-23T21:26:41.621Z,10.57
2023-11-23T21:29:10.665Z,11.15
2023-11-23T21:31:38.250Z,11.93
2023-11-23T21:34:05.325Z,9.93
2023-11-23T21:36:33.558Z,10.60
2023-11-23T21:39:00.771Z,10.68
2023-11-23T21:41:27.603Z,11.27
2023-11-23T21:43:54.457Z,9.93
2023-11-23T21:46:21.904Z,11.55
2023-11-23T21:48:49.515Z,12.27
2023-11-23T21:51:21.385Z,10.95
2023-11-23T21:53:48.570Z,11.07
2023-11-23T21:56:15.477Z,12.52
2023-11-23T21:58:42.306Z,12.63
2023-11-23T22:01:09.230Z,10.88
2023-11-23T22:03:36.344Z,10.30
2023-11-23T22:06:03.425Z,12.07
2023-11-23T22:08:30.241Z,12.10
2023-11-23T22:10:58.424Z,12.02
2023-11-23T22:13:25.278Z,13.32
2023-11-23T22:15:52.546Z,12.45
2023-11-23T22:18:20.068Z,12.50
2023-11-23T22:20:47.064Z,12.20
2023-11-23T22:23:14.202Z,16.17
2023-11-23T22:25:42.509Z,12.77
2023-11-23T22:28:10.277Z,13.73
2023-11-23T22:30:39.050Z,13.10
2023-11-23T22:33:08.127Z,15.20
2023-11-23T22:35:35.481Z,13.85
2023-11-23T22:38:07.498Z,12.85
2023-11-23T22:40:36.073Z,15.57
2023-11-23T22:43:03.642Z,14.50
2023-11-23T22:45:31.008Z,15.95
2023-11-23T22:47:59.185Z,15.63
2023-11-23T22:50:26.050Z,15.32
2023-11-23T22:52:52.884Z,18.10
2023-11-23T22:55:19.755Z,17.90
2023-11-23T22:57:49.655Z,17.55
2023-11-23T23:00:25.522Z,19.42
2023-11-23T23:02:52.717Z,17.08
2023-11-23T23:05:19.831Z,16.30
2023-11-23T23:07:46.876Z,16.38
2023-11-23T23:10:15.157Z,16.45
2023-11-23T23:12:42.032Z,16.95
2023-11-23T23:15:10.290Z,17.33
2023-11-23T23:17:37.186Z,17.63
2023-11-23T23:20:07.314Z,16.45
2023-11-23T23:22:34.581Z,16.77
2023-11-23T23:25:03.495Z,20.58
2023-11-23T23:27:30.345Z,18.25
2023-11-23T23:29:57.368Z,19.52
2023-11-23T23:32:24.875Z,18.13
2023-11-23T23:34:52.312Z,17.70
2023-11-23T23:37:19.127Z,17.27
2023-11-23T23:39:46.011Z,16.65
2023-11-23T23:42:12.900Z,14.13
2023-11-23T23:44:39.815Z,14.98
2023-11-23T23:47:08.816Z,15.00
2023-11-23T23:49:37.402Z,18.15
2023-11-23T23:52:04.733Z,16.33
2023-11-23T23:54:31.639Z,15.50
2023-11-23T23:56:58.936Z,14.77
2023-11-23T23:59:26.072Z,13.63
